createdAt,value
2023-04-18T00:00:02.858Z,82.9022
2023-04-18T00:01:03.924Z,82.7330
2023-04-18T00:02:05.116Z,82.7265
2023-04-18T00:03:06.695Z,82.7105
2023-04-18T00:04:08.528Z,82.8185
2023-04-18T00:05:09.883Z,82.6464
2023-04-18T00:06:11.000Z,82.6785
2023-04-18T00:07:12.160Z,83.2052
2023-04-18T00:08:13.294Z,83.0013
2023-04-18T00:09:14.560Z,83.1601
2023-04-18T00:10:15.669Z,82.2055
2023-04-18T00:11:16.747Z,82.2045
2023-04-18T00:12:17.831Z,82.3322
2023-04-18T00:13:18.972Z,82.9017
2023-04-18T00:14:20.067Z,82.6870
2023-04-18T00:15:21.178Z,82.0527
2023-04-18T00:16:22.314Z,82.5415
2023-04-18T00:17:23.505Z,82.4442
2023-04-18T00:18:24.622Z,82.1054
2023-04-18T00:19:25.739Z,81.8130
2023-04-18T00:20:26.854Z,81.8346
2023-04-18T00:21:27.951Z,82.1649
2023-04-18T00:22:29.078Z,81.6931
2023-04-18T00:23:30.233Z,81.6803
2023-04-18T00:24:31.319Z,81.7525
2023-04-18T00:25:32.447Z,81.7698
2023-04-18T00:26:33.517Z,82.1601
2023-04-18T00:27:34.695Z,81.8562
2023-04-18T00:28:35.764Z,81.5696
2023-04-18T00:29:36.928Z,81.4294
2023-04-18T00:30:38.092Z,81.4034
2023-04-18T00:31:39.181Z,81.5351
2023-04-18T00:32:40.314Z,81.5486
2023-04-18T00:33:41.387Z,81.5059
2023-04-18T00:34:42.551Z,81.6518
2023-04-18T00:35:43.678Z,81.7957
2023-04-18T00:36:44.763Z,81.6931
2023-04-18T00:37:45.841Z,81.9285
2023-04-18T00:38:46.958Z,82.0761
2023-04-18T00:39:48.094Z,81.7011
2023-04-18T00:40:49.246Z,81.7737
2023-04-18T00:41:50.364Z,81.7495
2023-04-18T00:42:51.431Z,81.6015
2023-04-18T00:43:52.705Z,81.6914
2023-04-18T00:44:53.736Z,82.0046
2023-04-18T00:45:54.861Z,82.1586
2023-04-18T00:46:55.940Z,82.1618
2023-04-18T00:47:57.012Z,82.0925
2023-04-18T00:48:58.095Z,82.0675
2023-04-18T00:49:59.227Z,82.0997
2023-04-18T00:51:00.303Z,82.1757
2023-04-18T00:52:01.393Z,82.2388
2023-04-18T00:53:02.507Z,82.1737
2023-04-18T00:54:03.632Z,82.0204
2023-04-18T00:55:04.714Z,82.0525
2023-04-18T00:56:05.833Z,82.0147
2023-04-18T00:57:06.915Z,82.0210
2023-04-18T00:58:08.013Z,82.1361
2023-04-18T00:59:09.071Z,82.2334
2023-04-18T01:00:10.194Z,82.2756
2023-04-18T01:01:11.341Z,82.2401
2023-04-18T01:02:12.503Z,82.3581
2023-04-18T01:03:13.766Z,82.1647
2023-04-18T01:04:15.137Z,82.1641
2023-04-18T01:05:16.646Z,82.4343
2023-04-18T01:06:17.770Z,82.4775
2023-04-18T01:07:18.891Z,81.8064
2023-04-18T01:08:19.965Z,81.9340
2023-04-18T01:09:21.087Z,81.7097
2023-04-18T01:10:22.223Z,81.7477
2023-04-18T01:11:23.510Z,81.6822
2023-04-18T01:12:24.584Z,81.9967
2023-04-18T01:13:25.724Z,81.7234
2023-04-18T01:14:26.773Z,81.8207
2023-04-18T01:15:27.921Z,81.8485
2023-04-18T01:16:29.032Z,81.8901
2023-04-18T01:17:30.219Z,81.6075
2023-04-18T01:18:31.362Z,81.9777
2023-04-18T01:19:32.717Z,81.6396
2023-04-18T01:20:33.873Z,81.6667
2023-04-18T01:21:35.023Z,81.7919
2023-04-18T01:22:36.166Z,81.6362
2023-04-18T01:23:37.283Z,81.7396
2023-04-18T01:24:38.377Z,82.0496
2023-04-18T01:25:39.626Z,81.6569
2023-04-18T01:26:40.665Z,81.7681
2023-04-18T01:27:41.824Z,81.7462
2023-04-18T01:28:42.925Z,81.8364
2023-04-18T01:29:44.016Z,81.8668
2023-04-18T01:30:45.224Z,81.9921
2023-04-18T01:31:46.431Z,82.2536
2023-04-18T01:32:47.573Z,81.9460
2023-04-18T01:33:48.669Z,82.2461
2023-04-18T01:34:49.765Z,82.2858
2023-04-18T01:35:51.099Z,82.3364
2023-04-18T01:36:52.150Z,82.2413
2023-04-18T01:37:53.215Z,82.1238
2023-04-18T01:38:54.348Z,82.2532
2023-04-18T01:39:55.510Z,82.3133
2023-04-18T01:40:56.603Z,82.2247
2023-04-18T01:41:57.862Z,82.0962
2023-04-18T01:42:58.942Z,82.0756
2023-04-18T01:44:00.016Z,82.1566
2023-04-18T01:45:01.140Z,82.1323
2023-04-18T01:46:02.301Z,82.2388
2023-04-18T01:47:03.440Z,82.3231
2023-04-18T01:48:04.552Z,82.4001
2023-04-18T01:49:05.640Z,82.4915
2023-04-18T01:50:06.743Z,82.7160
2023-04-18T01:51:07.852Z,82.8912
2023-04-18T01:52:09.020Z,82.3916
2023-04-18T01:53:10.465Z,82.3307
2023-04-18T01:54:11.823Z,82.3236
2023-04-18T01:55:13.442Z,82.2675
2023-04-18T01:56:14.535Z,82.1771
2023-04-18T01:57:15.646Z,82.2205
2023-04-18T01:58:16.748Z,82.2595
2023-04-18T01:59:17.955Z,82.2952
2023-04-18T02:00:19.109Z,82.4516
2023-04-18T02:01:20.340Z,82.3492
2023-04-18T02:02:21.768Z,82.3210
2023-04-18T02:03:23.273Z,82.5206
2023-04-18T02:04:24.484Z,82.4330
2023-04-18T02:05:25.601Z,82.5813
2023-04-18T02:06:26.995Z,82.6684
2023-04-18T02:07:28.151Z,82.8355
2023-04-18T02:08:29.272Z,82.5816
2023-04-18T02:09:30.388Z,82.7726
2023-04-18T02:10:31.523Z,82.9063
2023-04-18T02:11:32.673Z,82.8660
2023-04-18T02:12:33.753Z,82.7121
2023-04-18T02:13:35.033Z,83.0796
2023-04-18T02:14:36.385Z,83.2786
2023-04-18T02:15:37.549Z,82.8884
2023-04-18T02:16:38.708Z,82.8924
2023-04-18T02:17:39.799Z,82.8936
2023-04-18T02:18:40.960Z,83.1083
2023-04-18T02:19:42.086Z,83.3131
2023-04-18T02:20:43.212Z,83.0605
2023-04-18T02:21:44.324Z,83.0555
2023-04-18T02:22:45.481Z,83.3119
2023-04-18T02:23:46.600Z,83.5382
2023-04-18T02:24:47.707Z,83.3683
2023-04-18T02:25:48.804Z,83.5201
2023-04-18T02:26:49.927Z,83.6998
2023-04-18T02:27:51.034Z,83.6293
2023-04-18T02:28:52.266Z,83.6780
2023-04-18T02:29:53.442Z,83.7320
2023-04-18T02:30:54.576Z,83.5882
2023-04-18T02:31:55.785Z,83.4469
2023-04-18T02:32:56.977Z,83.4030
2023-04-18T02:33:59.219Z,83.6678
2023-04-18T02:35:00.317Z,83.6987
2023-04-18T02:36:01.426Z,83.5513
2023-04-18T02:37:02.576Z,83.5361
2023-04-18T02:38:03.807Z,83.6322
2023-04-18T02:39:04.936Z,83.5087
2023-04-18T02:40:06.061Z,83.3732
2023-04-18T02:41:07.203Z,83.5694
2023-04-18T02:42:08.335Z,83.5808
2023-04-18T02:43:09.510Z,83.5991
2023-04-18T02:44:10.626Z,83.7122
2023-04-18T02:45:11.856Z,83.9291
2023-04-18T02:46:13.041Z,83.7657
2023-04-18T02:47:14.188Z,83.6571
2023-04-18T02:48:15.424Z,83.6558
2023-04-18T02:49:16.595Z,83.7418
2023-04-18T02:50:17.673Z,83.7679
2023-04-18T02:51:18.908Z,83.8258
2023-04-18T02:52:20.047Z,83.7582
2023-04-18T02:53:21.211Z,83.7698
2023-04-18T02:54:22.307Z,83.7460
2023-04-18T02:55:23.455Z,83.7932
2023-04-18T02:56:24.539Z,83.6634
2023-04-18T02:57:25.643Z,83.6267
2023-04-18T02:58:26.784Z,83.6290
2023-04-18T02:59:27.924Z,83.7415
2023-04-18T03:00:29.047Z,84.0763
2023-04-18T03:01:30.199Z,84.1143
2023-04-18T03:02:31.454Z,83.9882
2023-04-18T03:03:32.742Z,84.0770
2023-04-18T03:04:33.945Z,84.1199
2023-04-18T03:05:35.159Z,84.1335
2023-04-18T03:06:36.288Z,84.1026
2023-04-18T03:07:37.428Z,83.9398
2023-04-18T03:08:38.533Z,83.9811
2023-04-18T03:09:39.674Z,84.0973
2023-04-18T03:10:40.812Z,84.2302
2023-04-18T03:11:42.104Z,84.1593
2023-04-18T03:12:43.249Z,84.1435
2023-04-18T03:13:44.410Z,84.3266
2023-04-18T03:14:45.548Z,84.3306
2023-04-18T03:15:46.708Z,84.2734
2023-04-18T03:16:47.812Z,84.2830
2023-04-18T03:17:49.136Z,84.3124
2023-04-18T03:18:50.280Z,84.3444
2023-04-18T03:19:51.459Z,84.2185
2023-04-18T03:20:52.653Z,84.1237
2023-04-18T03:21:53.798Z,84.1172
2023-04-18T03:22:55.022Z,84.2874
2023-04-18T03:23:56.120Z,84.2992
2023-04-18T03:24:57.230Z,84.2127
2023-04-18T03:25:58.346Z,84.3198
2023-04-18T03:26:59.532Z,84.3009
2023-04-18T03:28:00.706Z,84.2652
2023-04-18T03:29:01.945Z,84.2611
2023-04-18T03:30:03.139Z,84.2762
2023-04-18T03:31:04.389Z,84.2618
2023-04-18T03:32:05.533Z,84.3404
2023-04-18T03:33:06.625Z,84.3227
2023-04-18T03:34:07.800Z,84.1411
2023-04-18T03:35:08.967Z,83.9398
2023-04-18T03:36:10.095Z,84.1546
2023-04-18T03:37:11.204Z,84.2729
2023-04-18T03:38:12.375Z,84.2630
2023-04-18T03:39:13.485Z,84.1351
2023-04-18T03:40:14.640Z,84.1254
2023-04-18T03:41:15.765Z,84.1289
2023-04-18T03:42:16.923Z,84.1562
2023-04-18T03:43:18.076Z,84.2395
2023-04-18T03:44:19.250Z,84.1962
2023-04-18T03:45:20.425Z,84.2237
2023-04-18T03:46:21.616Z,84.2540
2023-04-18T03:47:22.749Z,84.2012
2023-04-18T03:48:23.915Z,84.0678
2023-04-18T03:49:25.036Z,83.8316
2023-04-18T03:50:26.265Z,83.9161
2023-04-18T03:51:27.363Z,83.9701
2023-04-18T03:52:29.830Z,83.8893
2023-04-18T03:53:28.775Z,83.7955
2023-04-18T03:54:29.916Z,83.9513
2023-04-18T03:55:31.065Z,83.9742
2023-04-18T03:56:32.182Z,83.8372
2023-04-18T03:57:33.277Z,83.5331
2023-04-18T03:58:34.403Z,83.4010
2023-04-18T03:59:35.529Z,83.6598
2023-04-18T04:00:36.694Z,83.6177
2023-04-18T04:01:37.909Z,83.6849
2023-04-18T04:02:39.149Z,83.8182
2023-04-18T04:03:40.409Z,83.8004
2023-04-18T04:04:41.913Z,83.7935
2023-04-18T04:05:43.044Z,83.7631
2023-04-18T04:06:44.184Z,83.8236
2023-04-18T04:07:45.378Z,84.0047
2023-04-18T04:08:46.565Z,83.9319
2023-04-18T04:09:47.681Z,83.8574
2023-04-18T04:10:48.843Z,83.9326
2023-04-18T04:11:50.008Z,84.0271
2023-04-18T04:12:51.131Z,83.9506
2023-04-18T04:13:52.282Z,84.0147
2023-04-18T04:14:53.457Z,84.0012
2023-04-18T04:15:54.620Z,83.9347
2023-04-18T04:16:55.781Z,84.0167
2023-04-18T04:17:57.080Z,83.9413
2023-04-18T04:18:58.261Z,83.9938
2023-04-18T04:19:59.372Z,84.0269
2023-04-18T04:21:00.531Z,84.0666
2023-04-18T04:22:01.610Z,83.9873
2023-04-18T04:23:02.796Z,84.0683
2023-04-18T04:24:03.952Z,83.9106
2023-04-18T04:25:05.083Z,83.9110
2023-04-18T04:26:06.202Z,83.9490
2023-04-18T04:27:07.377Z,83.8201
2023-04-18T04:28:08.591Z,84.2202
2023-04-18T04:29:09.716Z,83.7163
2023-04-18T04:30:13.308Z,83.8435
2023-04-18T04:31:12.133Z,83.8551
2023-04-18T04:32:13.324Z,83.7754
2023-04-18T04:33:14.535Z,83.7822
2023-04-18T04:34:15.958Z,83.5902
2023-04-18T04:35:17.311Z,83.6746
2023-04-18T04:36:19.006Z,83.8154
2023-04-18T04:37:20.245Z,83.8816
2023-04-18T04:38:21.440Z,84.0314
2023-04-18T04:39:22.618Z,84.1872
2023-04-18T04:40:23.733Z,84.2332
2023-04-18T04:41:24.910Z,84.0491
2023-04-18T04:42:26.052Z,84.0424
2023-04-18T04:43:27.208Z,84.0631
2023-04-18T04:44:28.364Z,84.1802
2023-04-18T04:45:29.569Z,83.9664
2023-04-18T04:46:30.684Z,84.0413
2023-04-18T04:47:31.947Z,84.6638
2023-04-18T04:48:33.212Z,84.0610
2023-04-18T04:49:34.412Z,83.9415
2023-04-18T04:50:35.583Z,83.9254
2023-04-18T04:51:36.804Z,83.7797
2023-04-18T04:52:37.990Z,84.0181
2023-04-18T04:53:39.376Z,83.8406
2023-04-18T04:54:40.800Z,84.0909
2023-04-18T04:55:42.007Z,84.0708
2023-04-18T04:56:43.169Z,84.0763
2023-04-18T04:57:44.322Z,84.1252
2023-04-18T04:58:45.445Z,84.2646
2023-04-18T04:59:46.571Z,84.3010
2023-04-18T05:00:47.733Z,84.3390
2023-04-18T05:01:48.994Z,84.1875
2023-04-18T05:02:50.520Z,84.1550
2023-04-18T05:03:51.984Z,84.0873
2023-04-18T05:04:53.188Z,84.1547
2023-04-18T05:05:54.361Z,84.0704
2023-04-18T05:06:55.440Z,84.1171
2023-04-18T05:07:56.593Z,84.2664
2023-04-18T05:08:57.819Z,84.3328
2023-04-18T05:09:58.985Z,84.1927
2023-04-18T05:11:00.168Z,83.9761
2023-04-18T05:12:01.421Z,83.9238
2023-04-18T05:13:02.588Z,84.1041
2023-04-18T05:14:03.781Z,84.1964
2023-04-18T05:15:04.934Z,84.3062
2023-04-18T05:16:06.154Z,84.3444
2023-04-18T05:17:07.354Z,84.4341
2023-04-18T05:18:08.632Z,84.4481
2023-04-18T05:19:09.819Z,84.3835
2023-04-18T05:20:10.956Z,84.3299
2023-04-18T05:21:12.182Z,84.1173
2023-04-18T05:22:13.320Z,83.9707
2023-04-18T05:23:14.486Z,84.0328
2023-04-18T05:24:15.955Z,83.9486
2023-04-18T05:25:17.374Z,84.1270
2023-04-18T05:26:18.502Z,84.2208
2023-04-18T05:27:19.637Z,84.0096
2023-04-18T05:28:20.749Z,84.1213
2023-04-18T05:29:21.950Z,84.0430
2023-04-18T05:30:23.050Z,83.9976
2023-04-18T05:31:24.194Z,83.8439
2023-04-18T05:32:25.366Z,83.7792
2023-04-18T05:33:26.466Z,83.8453
2023-04-18T05:34:27.651Z,83.7846
2023-04-18T05:35:28.769Z,83.6630
2023-04-18T05:36:29.876Z,83.5843
2023-04-18T05:37:31.047Z,83.7503
2023-04-18T05:38:32.216Z,83.8231
2023-04-18T05:39:33.373Z,83.9302
2023-04-18T05:40:34.471Z,84.0683
2023-04-18T05:41:35.645Z,84.0777
2023-04-18T05:42:36.762Z,84.0734
2023-04-18T05:43:38.001Z,84.0103
2023-04-18T05:44:39.097Z,83.9237
2023-04-18T05:45:40.277Z,83.9519
2023-04-18T05:46:41.524Z,84.1094
2023-04-18T05:47:42.740Z,84.2489
2023-04-18T05:48:43.913Z,84.1970
2023-04-18T05:49:45.029Z,84.0326
2023-04-18T05:50:46.228Z,83.7683
2023-04-18T05:51:47.367Z,83.7237
2023-04-18T05:52:48.473Z,83.8306
2023-04-18T05:53:49.640Z,83.7939
2023-04-18T05:54:50.766Z,83.7294
2023-04-18T05:55:51.889Z,83.7246
2023-04-18T05:56:53.048Z,84.0636
2023-04-18T05:57:54.219Z,83.7890
2023-04-18T05:58:55.344Z,83.7046
2023-04-18T05:59:56.487Z,83.7933
2023-04-18T06:00:57.620Z,83.8676
2023-04-18T06:01:58.805Z,83.6971
2023-04-18T06:03:00.150Z,83.9450
2023-04-18T06:04:01.814Z,84.0146
2023-04-18T06:05:03.319Z,83.9354
2023-04-18T06:06:04.762Z,83.9723
2023-04-18T06:07:05.909Z,84.1297
2023-04-18T06:08:07.151Z,83.9853
2023-04-18T06:09:08.244Z,84.0900
2023-04-18T06:10:09.386Z,83.9528
2023-04-18T06:11:10.522Z,83.9076
2023-04-18T06:12:11.874Z,84.1473
2023-04-18T06:13:13.175Z,83.9929
2023-04-18T06:14:14.442Z,83.9611
2023-04-18T06:15:15.682Z,84.0683
2023-04-18T06:16:16.957Z,84.0795
2023-04-18T06:17:18.154Z,84.1181
2023-04-18T06:18:19.319Z,84.0137
2023-04-18T06:19:20.546Z,84.0612
2023-04-18T06:20:21.695Z,83.9151
2023-04-18T06:21:22.880Z,83.8390
2023-04-18T06:22:23.995Z,83.7774
2023-04-18T06:23:25.185Z,83.5607
2023-04-18T06:24:26.380Z,83.4735
2023-04-18T06:25:27.536Z,83.5066
2023-04-18T06:26:28.748Z,83.5025
2023-04-18T06:27:31.922Z,83.6491
2023-04-18T06:28:30.627Z,83.4990
2023-04-18T06:29:31.780Z,83.5362
2023-04-18T06:30:32.913Z,83.5410
2023-04-18T06:31:34.054Z,83.4507
2023-04-18T06:32:35.304Z,83.4758
2023-04-18T06:33:36.700Z,83.3736
2023-04-18T06:34:37.870Z,83.5900
2023-04-18T06:35:39.079Z,83.5557
2023-04-18T06:36:40.209Z,83.3277
2023-04-18T06:37:41.348Z,83.3639
2023-04-18T06:38:42.478Z,83.3404
2023-04-18T06:39:43.605Z,83.3856
2023-04-18T06:40:44.806Z,83.3860
2023-04-18T06:41:45.929Z,83.3518
2023-04-18T06:42:47.084Z,83.5796
2023-04-18T06:44:02.109Z,83.6307
2023-04-18T06:44:50.029Z,83.7056
2023-04-18T06:45:51.207Z,83.6968
2023-04-18T06:46:52.377Z,83.4264
2023-04-18T06:47:53.560Z,83.6886
2023-04-18T06:48:54.703Z,83.6531
2023-04-18T06:49:55.861Z,83.8511
2023-04-18T06:50:56.992Z,83.6173
2023-04-18T06:51:58.105Z,83.6783
2023-04-18T06:52:59.352Z,83.7701
2023-04-18T06:54:00.466Z,83.7748
2023-04-18T06:55:01.670Z,83.6519
2023-04-18T06:56:02.916Z,83.7656
2023-04-18T06:57:04.092Z,83.9501
2023-04-18T06:58:05.263Z,83.7679
2023-04-18T06:59:06.501Z,83.9727
2023-04-18T07:00:07.687Z,83.7102
2023-04-18T07:01:08.925Z,83.6652
2023-04-18T07:02:10.379Z,83.6888
2023-04-18T07:03:11.920Z,83.6224
2023-04-18T07:04:13.655Z,83.7145
2023-04-18T07:05:15.395Z,83.8173
2023-04-18T07:06:16.576Z,83.8816
2023-04-18T07:07:17.766Z,84.0392
2023-04-18T07:08:18.938Z,84.0015
2023-04-18T07:09:20.179Z,83.9786
2023-04-18T07:10:21.354Z,83.9335
2023-04-18T07:11:22.521Z,83.8125
2023-04-18T07:12:23.743Z,83.8827
2023-04-18T07:13:24.881Z,83.6023
2023-04-18T07:14:26.118Z,83.3839
2023-04-18T07:15:27.305Z,83.2129
2023-04-18T07:16:28.552Z,83.5304
2023-04-18T07:17:29.766Z,83.3641
2023-04-18T07:18:37.864Z,83.2608
2023-04-18T07:19:32.796Z,83.5131
2023-04-18T07:20:34.032Z,83.4025
2023-04-18T07:21:35.233Z,83.3435
2023-04-18T07:22:36.419Z,83.2118
2023-04-18T07:23:37.596Z,83.3663
2023-04-18T07:24:38.796Z,83.3911
2023-04-18T07:25:40.037Z,83.0081
2023-04-18T07:26:41.206Z,82.8983
2023-04-18T07:27:42.404Z,82.9650
2023-04-18T07:28:43.632Z,82.9886
2023-04-18T07:29:44.782Z,82.8220
2023-04-18T07:30:45.949Z,82.9871
2023-04-18T07:31:47.112Z,83.1643
2023-04-18T07:32:48.331Z,83.1148
2023-04-18T07:33:49.487Z,83.2204
2023-04-18T07:34:50.693Z,83.0317
2023-04-18T07:35:51.847Z,83.0419
2023-04-18T07:36:53.044Z,83.0639
2023-04-18T07:37:54.219Z,83.0338
2023-04-18T07:38:55.381Z,83.0586
2023-04-18T07:39:56.578Z,82.9072
2023-04-18T07:40:57.725Z,82.5938
2023-04-18T07:41:58.942Z,82.4285
2023-04-18T07:43:00.146Z,82.6590
2023-04-18T07:44:01.308Z,82.7648
2023-04-18T07:45:02.450Z,82.6035
2023-04-18T07:46:03.679Z,82.4056
2023-04-18T07:47:04.881Z,82.5615
2023-04-18T07:48:06.060Z,82.4239
2023-04-18T07:49:07.186Z,82.3289
2023-04-18T07:50:08.369Z,82.1728
2023-04-18T07:51:09.569Z,82.3922
2023-04-18T07:52:10.753Z,82.5818
2023-04-18T07:53:11.931Z,82.4366
2023-04-18T07:54:13.139Z,82.1717
2023-04-18T07:55:14.304Z,81.7610
2023-04-18T07:56:15.536Z,81.9545
2023-04-18T07:57:16.626Z,81.9442
2023-04-18T07:58:17.788Z,81.8838
2023-04-18T07:59:18.986Z,81.2384
2023-04-18T08:00:20.118Z,81.3705
2023-04-18T08:01:21.352Z,81.3865
2023-04-18T08:02:22.596Z,80.6313
2023-04-18T08:03:24.035Z,80.1203
2023-04-18T08:04:27.575Z,80.2560
2023-04-18T08:05:27.770Z,80.6800
2023-04-18T08:06:29.024Z,80.6315
2023-04-18T08:07:30.176Z,79.6982
2023-04-18T08:08:31.322Z,79.7610
2023-04-18T08:09:32.483Z,80.1214
2023-04-18T08:10:33.714Z,80.1655
2023-04-18T08:11:35.004Z,79.4227
2023-04-18T08:12:36.157Z,79.3880
2023-04-18T08:13:37.343Z,79.0582
2023-04-18T08:14:38.523Z,79.1694
2023-04-18T08:15:39.811Z,79.0594
2023-04-18T08:16:41.036Z,79.1308
2023-04-18T08:17:42.315Z,77.9266
2023-04-18T08:18:43.505Z,77.9590
2023-04-18T08:19:44.718Z,78.9566
2023-04-18T08:20:45.886Z,79.0079
2023-04-18T08:21:47.028Z,78.7406
2023-04-18T08:23:04.843Z,78.7118
2023-04-18T08:23:49.990Z,77.6133
2023-04-18T08:25:03.860Z,78.3532
2023-04-18T08:25:52.973Z,79.0816
2023-04-18T08:26:54.236Z,79.1869
2023-04-18T08:27:55.426Z,79.0542
2023-04-18T08:28:56.597Z,79.1740
2023-04-18T08:29:57.771Z,79.0842
2023-04-18T08:30:58.939Z,78.9147
2023-04-18T08:32:00.162Z,79.8141
2023-04-18T08:33:01.581Z,80.0342
2023-04-18T08:34:04.528Z,79.6514
2023-04-18T08:35:03.782Z,79.6318
2023-04-18T08:36:04.925Z,78.9943
2023-04-18T08:37:06.073Z,79.4141
2023-04-18T08:38:07.325Z,79.7791
2023-04-18T08:39:08.514Z,79.8859
2023-04-18T08:40:09.723Z,79.6240
2023-04-18T08:41:10.866Z,79.3336
2023-04-18T08:42:12.069Z,79.0303
2023-04-18T08:43:13.258Z,79.4637
2023-04-18T08:44:14.602Z,79.6195
2023-04-18T08:45:16.004Z,79.3849
2023-04-18T08:46:17.242Z,79.2953
2023-04-18T08:47:18.460Z,79.1888
2023-04-18T08:48:19.840Z,79.0068
2023-04-18T08:49:21.036Z,78.8325
2023-04-18T08:50:22.200Z,79.0105
2023-04-18T08:51:23.339Z,78.6804
2023-04-18T08:52:24.547Z,78.3025
2023-04-18T08:53:25.725Z,78.1543
2023-04-18T08:54:27.488Z,77.7268
2023-04-18T08:55:28.813Z,77.6672
2023-04-18T08:56:29.990Z,77.5741
2023-04-18T08:57:31.211Z,77.4585
2023-04-18T08:58:32.447Z,77.5251
2023-04-18T08:59:33.633Z,77.6955
2023-04-18T09:00:34.739Z,78.0212
2023-04-18T09:01:35.942Z,78.1918
2023-04-18T09:02:37.195Z,78.3581
2023-04-18T09:03:38.567Z,78.2586
2023-04-18T09:04:39.858Z,78.0777
2023-04-18T09:05:41.000Z,77.8167
2023-04-18T09:06:42.166Z,77.5224
2023-04-18T09:07:43.321Z,77.5884
2023-04-18T09:08:44.519Z,77.4534
2023-04-18T09:09:45.662Z,77.1442
2023-04-18T09:10:46.922Z,76.9189
2023-04-18T09:11:48.085Z,76.9251
2023-04-18T09:12:49.302Z,76.7171
2023-04-18T09:13:50.542Z,76.4827
2023-04-18T09:14:51.683Z,76.4101
2023-04-18T09:15:52.917Z,76.4464
2023-04-18T09:16:54.068Z,76.3167
2023-04-18T09:17:55.291Z,75.9803
2023-04-18T09:18:56.459Z,76.2854
2023-04-18T09:19:57.590Z,76.4237
2023-04-18T09:20:58.784Z,77.0395
2023-04-18T09:21:59.946Z,77.0381
2023-04-18T09:23:01.109Z,77.2152
2023-04-18T09:24:02.297Z,76.9795
2023-04-18T09:25:03.483Z,76.0768
2023-04-18T09:26:04.663Z,76.7338
2023-04-18T09:27:05.794Z,76.4003
2023-04-18T09:28:06.951Z,76.3458
2023-04-18T09:29:08.150Z,76.2518
2023-04-18T09:30:09.325Z,75.7414
2023-04-18T09:31:10.474Z,75.6765
2023-04-18T09:32:11.608Z,75.5312
2023-04-18T09:33:12.734Z,75.4338
2023-04-18T09:34:14.134Z,74.5789
2023-04-18T09:35:15.670Z,74.7016
2023-04-18T09:36:16.887Z,75.0752
2023-04-18T09:37:17.993Z,75.5722
2023-04-18T09:38:19.187Z,75.5058
2023-04-18T09:39:20.297Z,75.6133
2023-04-18T09:40:21.439Z,75.5458
2023-04-18T09:41:22.575Z,75.1263
2023-04-18T09:42:24.083Z,75.5872
2023-04-18T09:43:25.776Z,75.5273
2023-04-18T09:44:26.937Z,74.4295
2023-04-18T09:45:28.198Z,74.3979
2023-04-18T09:46:29.372Z,74.6471
2023-04-18T09:47:30.540Z,75.1121
2023-04-18T09:48:31.675Z,75.0958
2023-04-18T09:49:32.845Z,75.3209
2023-04-18T09:50:34.004Z,75.8444
2023-04-18T09:51:35.164Z,76.3463
2023-04-18T09:52:36.283Z,76.3810
2023-04-18T09:53:37.417Z,76.7152
2023-04-18T09:54:38.551Z,76.3166
2023-04-18T09:55:39.714Z,75.4085
2023-04-18T09:56:40.841Z,75.4144
2023-04-18T09:57:41.967Z,75.5385
2023-04-18T09:58:43.105Z,75.9706
2023-04-18T09:59:44.328Z,75.3297
2023-04-18T10:00:46.901Z,75.3404
2023-04-18T10:01:45.829Z,74.0173
2023-04-18T10:02:47.033Z,74.0704
2023-04-18T10:03:48.471Z,73.9822
2023-04-18T10:04:50.035Z,72.9340
2023-04-18T10:05:51.312Z,72.6458
2023-04-18T10:06:52.476Z,72.8789
2023-04-18T10:07:53.607Z,72.7000
2023-04-18T10:08:54.735Z,73.0944
2023-04-18T10:09:55.879Z,72.8803
2023-04-18T10:10:56.990Z,73.2635
2023-04-18T10:11:58.113Z,73.2786
2023-04-18T10:12:59.217Z,73.0940
2023-04-18T10:14:00.328Z,73.5666
2023-04-18T10:15:02.150Z,73.3553
2023-04-18T10:16:03.288Z,73.0366
2023-04-18T10:17:04.410Z,72.5440
2023-04-18T10:18:06.446Z,72.9823
2023-04-18T10:19:07.963Z,72.8292
2023-04-18T10:20:09.111Z,73.7631
2023-04-18T10:21:10.229Z,73.7614
2023-04-18T10:22:11.410Z,73.3890
2023-04-18T10:23:12.625Z,72.9183
2023-04-18T10:24:13.874Z,72.5671
2023-04-18T10:25:15.499Z,71.8651
2023-04-18T10:26:16.814Z,71.3242
2023-04-18T10:27:18.030Z,72.3994
2023-04-18T10:28:19.161Z,73.0651
2023-04-18T10:29:20.298Z,72.5754
2023-04-18T10:30:21.534Z,72.7334
2023-04-18T10:31:22.857Z,73.4948
2023-04-18T10:32:24.129Z,73.9887
2023-04-18T10:33:30.894Z,74.0498
2023-04-18T10:34:26.945Z,73.4790
2023-04-18T10:35:28.065Z,73.9424
2023-04-18T10:36:29.275Z,73.2996
2023-04-18T10:37:30.308Z,73.1171
2023-04-18T10:38:31.418Z,73.4106
2023-04-18T10:39:32.556Z,73.9611
2023-04-18T10:40:33.733Z,73.9752
2023-04-18T10:41:34.843Z,73.6391
2023-04-18T10:42:35.964Z,73.3002
2023-04-18T10:43:37.117Z,73.3670
2023-04-18T10:44:38.280Z,73.7091
2023-04-18T10:45:39.411Z,73.6044
2023-04-18T10:46:40.597Z,72.9969
2023-04-18T10:47:41.908Z,72.5683
2023-04-18T10:48:43.133Z,72.6471
2023-04-18T10:49:44.268Z,72.3339
2023-04-18T10:50:45.373Z,71.4573
2023-04-18T10:51:46.471Z,72.1545
2023-04-18T10:52:47.635Z,70.4500
2023-04-18T10:53:48.760Z,71.8701
2023-04-18T10:54:49.920Z,72.1750
2023-04-18T10:55:51.052Z,72.8006
2023-04-18T10:56:52.194Z,72.5433
2023-04-18T10:57:53.302Z,72.7553
2023-04-18T10:58:54.484Z,72.8001
2023-04-18T10:59:55.542Z,72.0964
2023-04-18T11:00:56.805Z,70.5941
2023-04-18T11:01:57.988Z,70.1998
2023-04-18T11:02:59.209Z,68.5188
2023-04-18T11:04:00.517Z,67.1938
2023-04-18T11:05:01.884Z,67.7725
2023-04-18T11:06:03.003Z,70.0256
2023-04-18T11:07:04.734Z,70.1621
2023-04-18T11:08:05.824Z,69.8193
2023-04-18T11:09:06.953Z,70.1912
2023-04-18T11:10:08.007Z,70.2460
2023-04-18T11:11:09.143Z,70.3594
2023-04-18T11:12:10.263Z,71.2691
2023-04-18T11:13:11.379Z,71.0734
2023-04-18T11:14:12.602Z,71.4674
2023-04-18T11:15:14.523Z,71.4054
2023-04-18T11:16:15.926Z,71.8909
2023-04-18T11:17:17.060Z,71.4950
2023-04-18T11:18:18.183Z,71.0278
2023-04-18T11:19:19.326Z,70.4325
2023-04-18T11:20:20.418Z,69.1620
2023-04-18T11:21:21.567Z,69.3094
2023-04-18T11:22:22.687Z,69.2669
2023-04-18T11:23:23.839Z,70.1490
2023-04-18T11:24:24.937Z,69.9284
2023-04-18T11:25:26.078Z,69.2629
2023-04-18T11:26:27.218Z,69.5892
2023-04-18T11:27:28.345Z,69.7856
2023-04-18T11:28:29.460Z,70.4512
2023-04-18T11:29:30.574Z,70.9475
2023-04-18T11:30:31.927Z,70.7220
2023-04-18T11:31:33.060Z,70.8750
2023-04-18T11:32:34.589Z,71.0910
2023-04-18T11:33:35.786Z,71.3471
2023-04-18T11:34:36.852Z,70.9838
2023-04-18T11:35:37.997Z,70.8671
2023-04-18T11:36:39.155Z,70.2551
2023-04-18T11:37:40.326Z,70.2233
2023-04-18T11:38:41.714Z,70.0233
2023-04-18T11:39:42.906Z,70.0992
2023-04-18T11:40:44.072Z,71.3122
2023-04-18T11:41:45.262Z,70.8352
2023-04-18T11:42:46.414Z,70.5051
2023-04-18T11:43:47.578Z,68.2590
2023-04-18T11:44:48.698Z,69.1973
2023-04-18T11:45:49.939Z,69.3624
2023-04-18T11:46:51.146Z,68.8041
2023-04-18T11:47:52.349Z,68.3572
2023-04-18T11:48:53.496Z,68.3637
2023-04-18T11:49:56.907Z,65.6580
2023-04-18T11:50:55.603Z,64.5315
2023-04-18T11:51:56.744Z,65.7938
2023-04-18T11:52:57.884Z,65.2247
2023-04-18T11:53:59.031Z,65.2343
2023-04-18T11:55:00.182Z,64.8041
2023-04-18T11:56:01.266Z,62.6401
2023-04-18T11:57:02.378Z,61.2404
2023-04-18T11:58:03.512Z,60.8670
2023-04-18T11:59:04.631Z,61.9538
2023-04-18T12:00:05.746Z,62.8743
2023-04-18T12:01:06.845Z,65.3042
2023-04-18T12:02:16.034Z,66.8556
2023-04-18T12:03:11.771Z,67.8246
2023-04-18T12:04:12.141Z,66.6081
2023-04-18T12:05:13.918Z,64.8578
2023-04-18T12:06:15.510Z,63.2066
2023-04-18T12:07:16.587Z,62.9155
2023-04-18T12:08:17.730Z,62.0681
2023-04-18T12:09:18.833Z,61.5637
2023-04-18T12:10:19.928Z,60.3397
2023-04-18T12:11:21.031Z,57.3721
2023-04-18T12:12:22.182Z,60.4440
2023-04-18T12:13:23.247Z,60.7482
2023-04-18T12:14:24.392Z,60.8584
2023-04-18T12:15:25.634Z,61.8792
2023-04-18T12:16:26.896Z,62.1715
2023-04-18T12:17:28.019Z,62.6557
2023-04-18T12:18:29.163Z,62.3358
2023-04-18T12:19:30.309Z,62.8800